createdAt,value
2023-04-22T00:02:02.917Z,100089.78
2023-04-22T00:04:30.089Z,100090.59
2023-04-22T00:06:56.901Z,100105.47
2023-04-22T00:09:28.710Z,100102.81
2023-04-22T00:11:57.976Z,100102.00
2023-04-22T00:14:24.766Z,100089.97
2023-04-22T00:16:53.917Z,100090.13
2023-04-22T00:19:21.929Z,100092.63
2023-04-22T00:21:53.131Z,100089.03
2023-04-22T00:24:22.378Z,100091.47
2023-04-22T00:26:51.301Z,100094.00
2023-04-22T00:29:18.052Z,100087.91
2023-04-22T00:31:47.744Z,100094.88
2023-04-22T00:34:18.102Z,100089.66
2023-04-22T00:36:47.136Z,100092.19
2023-04-22T00:39:14.206Z,100094.69
2023-04-22T00:41:40.860Z,100093.81
2023-04-22T00:44:13.711Z,100094.59
2023-04-22T00:46:42.937Z,100097.19
2023-04-22T00:49:09.854Z,100090.22
2023-04-22T00:51:36.513Z,100096.28
2023-04-22T00:54:06.520Z,100088.53
2023-04-22T00:56:33.554Z,100090.75
2023-04-22T00:59:00.206Z,100104.41
2023-04-22T01:01:29.128Z,100105.41
2023-04-22T01:03:58.732Z,100111.31
2023-04-22T01:06:26.670Z,100106.78
2023-04-22T01:08:53.652Z,100105.03
2023-04-22T01:11:21.727Z,100109.38
2023-04-22T01:13:48.282Z,100106.44
2023-04-22T01:16:15.121Z,100098.47
2023-04-22T01:18:44.089Z,100105.97
2023-04-22T01:21:11.162Z,100108.50
2023-04-22T01:23:38.070Z,100109.19
2023-04-22T01:26:04.802Z,100113.50
2023-04-22T01:28:31.544Z,100109.94
2023-04-22T01:31:00.952Z,100112.53
2023-04-22T01:33:30.047Z,100111.53
2023-04-22T01:36:03.970Z,100117.56
2023-04-22T01:38:33.854Z,100121.03
2023-04-22T01:41:04.162Z,100115.97
2023-04-22T01:43:31.250Z,100123.72
2023-04-22T01:46:00.869Z,100123.81
2023-04-22T01:48:30.366Z,100117.72
2023-04-22T01:50:59.374Z,100121.19
2023-04-22T01:53:31.864Z,100115.13
2023-04-22T01:55:58.498Z,100115.69
2023-04-22T01:58:25.200Z,100120.81
2023-04-22T02:00:54.205Z,100120.81
2023-04-22T02:03:23.603Z,100109.47
2023-04-22T02:05:52.582Z,100114.72
2023-04-22T02:08:22.228Z,100115.59
2023-04-22T02:10:48.928Z,100115.38
2023-04-22T02:13:15.780Z,100113.75
2023-04-22T02:15:42.477Z,100110.25
2023-04-22T02:18:10.246Z,100120.78
2023-04-22T02:20:39.368Z,100119.91
2023-04-22T02:23:06.430Z,100112.09
2023-04-22T02:25:33.284Z,100111.16
2023-04-22T02:28:02.355Z,100112.94
2023-04-22T02:30:34.438Z,100117.47
2023-04-22T02:33:01.707Z,100114.19
2023-04-22T02:35:30.935Z,100116.78
2023-04-22T02:37:59.699Z,100118.56
2023-04-22T02:40:26.825Z,100109.13
2023-04-22T02:42:53.462Z,100111.88
2023-04-22T02:45:24.183Z,100102.19
2023-04-22T02:47:52.931Z,100104.09
2023-04-22T02:50:19.805Z,100104.09
2023-04-22T02:52:51.474Z,100098.03
2023-04-22T02:55:24.680Z,100109.31
2023-04-22T02:57:54.351Z,100105.91
2023-04-22T03:00:21.469Z,100105.91
2023-04-22T03:02:48.229Z,100106.69
2023-04-22T03:05:17.129Z,100106.72
2023-04-22T03:07:45.162Z,100105.81
2023-04-22T03:10:12.069Z,100116.22
2023-04-22T03:12:43.942Z,100110.00
2023-04-22T03:15:13.753Z,100105.56
2023-04-22T03:17:40.716Z,100099.44
2023-04-22T03:20:11.153Z,100102.91
2023-04-22T03:22:37.871Z,100111.44
2023-04-22T03:25:08.282Z,100116.69
2023-04-22T03:27:35.028Z,100115.06
2023-04-22T03:30:02.154Z,100116.69
2023-04-22T03:32:34.257Z,100120.25
2023-04-22T03:35:24.780Z,100120.16
2023-04-22T03:37:59.757Z,100114.94
2023-04-22T03:40:31.336Z,100119.88
2023-04-22T03:43:03.942Z,100122.38
2023-04-22T03:45:34.902Z,100127.44
2023-04-22T03:48:19.124Z,100120.28
2023-04-22T03:50:49.134Z,100124.19
2023-04-22T03:53:16.653Z,100126.09
2023-04-22T03:55:46.676Z,100130.16
2023-04-22T03:58:14.949Z,100135.25
2023-04-22T04:00:42.113Z,100124.97
2023-04-22T04:03:15.254Z,100127.75
2023-04-22T04:05:45.604Z,100133.13
2023-04-22T04:08:14.711Z,100126.97
2023-04-22T04:10:42.626Z,100129.53
2023-04-22T04:13:15.551Z,100137.41
2023-04-22T04:16:11.249Z,100139.25
2023-04-22T04:18:40.798Z,100137.41
2023-04-22T04:21:08.188Z,100140.75
2023-04-22T04:23:39.307Z,100141.47
2023-04-22T04:26:06.027Z,100150.13
2023-04-22T04:28:37.111Z,100147.66
2023-04-22T04:31:06.023Z,100150.31
2023-04-22T04:33:37.148Z,100146.75
2023-04-22T04:36:04.363Z,100159.78
2023-04-22T04:38:34.285Z,100163.50
2023-04-22T04:41:01.829Z,100157.75
2023-04-22T04:43:29.501Z,100160.53
2023-04-22T04:46:08.430Z,100165.78
2023-04-22T04:48:37.240Z,100166.81
2023-04-22T04:51:11.705Z,100167.13
2023-04-22T04:53:48.538Z,100167.94
2023-04-22T04:56:15.592Z,100165.19
2023-04-22T04:58:47.733Z,100168.81
2023-04-22T05:01:26.212Z,100163.53
2023-04-22T05:04:00.710Z,100171.16
2023-04-22T05:06:29.251Z,100170.97
2023-04-22T05:09:04.417Z,100178.88
2023-04-22T05:11:31.278Z,100168.69
2023-04-22T05:14:02.766Z,100171.44
2023-04-22T05:16:36.410Z,100168.22
2023-04-22T05:19:03.914Z,100171.06
2023-04-22T05:21:31.549Z,100172.09
2023-04-22T05:24:01.375Z,100174.88
2023-04-22T05:26:31.171Z,100172.50
2023-04-22T05:28:58.200Z,100164.00
2023-04-22T05:31:25.170Z,100162.50
2023-04-22T05:33:51.904Z,100163.50
2023-04-22T05:36:18.710Z,100176.59
2023-04-22T05:38:49.665Z,100174.19
2023-04-22T05:41:16.883Z,100169.25
2023-04-22T05:43:46.486Z,100173.94
2023-04-22T05:46:16.723Z,100178.59
2023-04-22T05:48:44.814Z,100177.66
2023-04-22T05:51:31.402Z,100184.59
2023-04-22T05:53:57.987Z,100182.00
2023-04-22T05:56:24.668Z,100181.78
2023-04-22T05:58:51.515Z,100181.75
2023-04-22T06:01:21.876Z,100188.53
2023-04-22T06:03:57.422Z,100181.34
2023-04-22T06:06:26.034Z,100188.13
2023-04-22T06:08:55.201Z,100187.25
2023-04-22T06:11:24.424Z,100187.03
2023-04-22T06:13:51.345Z,100191.44
2023-04-22T06:16:23.770Z,100188.97
2023-04-22T06:18:50.587Z,100184.94
2023-04-22T06:21:22.314Z,100194.63
2023-04-22T06:23:52.596Z,100190.34
2023-04-22T06:26:21.550Z,100195.81
2023-04-22T06:28:48.283Z,100194.03
2023-04-22T06:31:19.092Z,100193.28
2023-04-22T06:33:47.653Z,100195.09
2023-04-22T06:36:14.677Z,100194.97
2023-04-22T06:38:45.779Z,100188.81
2023-04-22T06:41:36.233Z,100188.88
2023-04-22T06:44:11.313Z,100187.28
2023-04-22T06:47:06.150Z,100191.84
2023-04-22T06:49:55.643Z,100192.25
2023-04-22T06:52:23.971Z,100188.38
2023-04-22T06:54:56.132Z,100188.59
2023-04-22T06:57:22.896Z,100184.63
2023-04-22T06:59:52.022Z,100177.09
2023-04-22T07:02:21.732Z,100181.66
2023-04-22T07:04:50.841Z,100182.66
2023-04-22T07:07:17.556Z,100183.69
2023-04-22T07:09:49.161Z,100181.28
2023-04-22T07:12:15.935Z,100181.53
2023-04-22T07:14:43.498Z,100182.59
2023-04-22T07:17:11.098Z,100185.50
2023-04-22T07:19:38.216Z,100183.13
2023-04-22T07:22:07.557Z,100192.84
2023-04-22T07:24:34.243Z,100189.56
2023-04-22T07:27:02.583Z,100187.94
2023-04-22T07:29:31.741Z,100180.25
2023-04-22T07:32:01.535Z,100183.88
2023-04-22T07:34:30.705Z,100184.88
2023-04-22T07:36:59.800Z,100189.31
2023-04-22T07:39:28.797Z,100178.94
2023-04-22T07:42:00.502Z,100186.88
2023-04-22T07:44:27.200Z,100188.78
2023-04-22T07:46:54.135Z,100187.94
2023-04-22T07:49:24.080Z,100186.22
2023-04-22T07:51:53.462Z,100187.84
2023-04-22T07:54:22.432Z,100181.81
2023-04-22T07:56:49.392Z,100181.81
2023-04-22T07:59:20.928Z,100181.84
2023-04-22T08:01:50.521Z,100178.31
2023-04-22T08:04:17.903Z,100179.22
2023-04-22T08:06:44.732Z,100173.19
2023-04-22T08:09:11.494Z,100184.66
2023-04-22T08:11:38.350Z,100179.47
2023-04-22T08:14:07.132Z,100176.03
2023-04-22T08:16:33.854Z,100172.53
2023-04-22T08:19:03.314Z,100182.19
2023-04-22T08:21:30.079Z,100179.56
2023-04-22T08:23:57.046Z,100176.13
2023-04-22T08:26:23.669Z,100177.88
2023-04-22T08:28:50.420Z,100178.81
2023-04-22T08:31:19.561Z,100173.63
2023-04-22T08:33:46.441Z,100172.78
2023-04-22T08:36:13.078Z,100171.91
2023-04-22T08:38:39.694Z,100175.41
2023-04-22T08:41:07.139Z,100175.41
2023-04-22T08:43:38.814Z,100173.72
2023-04-22T08:46:09.942Z,100173.72
2023-04-22T08:48:36.865Z,100172.84
2023-04-22T08:51:03.726Z,100178.09
2023-04-22T08:53:31.252Z,100168.47
2023-04-22T08:56:00.449Z,100164.09
2023-04-22T08:58:28.302Z,100162.31
2023-04-22T09:00:57.318Z,100165.81
2023-04-22T09:03:24.079Z,100174.50
2023-04-22T09:05:50.700Z,100169.19
2023-04-22T09:08:17.248Z,100159.47
2023-04-22T09:10:43.861Z,100159.47
2023-04-22T09:13:10.655Z,100162.91
2023-04-22T09:15:40.210Z,100163.78
2023-04-22T09:18:11.018Z,100170.78
2023-04-22T09:20:44.126Z,100168.19
2023-04-22T09:23:13.397Z,100162.09
2023-04-22T09:25:42.431Z,100162.81
2023-04-22T09:28:11.769Z,100163.50
2023-04-22T09:30:40.776Z,100161.75
2023-04-22T09:33:09.892Z,100162.53
2023-04-22T09:35:37.129Z,100156.22
2023-04-22T09:38:08.077Z,100158.69
2023-04-22T09:40:38.022Z,100161.31
2023-04-22T09:43:05.939Z,100151.59
2023-04-22T09:45:36.499Z,100146.31
2023-04-22T09:48:10.455Z,100146.88
2023-04-22T09:50:37.909Z,100133.84
2023-04-22T09:53:07.618Z,100146.03
2023-04-22T09:55:35.720Z,100138.91
2023-04-22T09:58:09.692Z,100131.03
2023-04-22T10:00:39.430Z,100128.50
2023-04-22T10:03:09.737Z,100124.63
2023-04-22T10:05:37.919Z,100120.50
2023-04-22T10:08:05.382Z,100115.63
2023-04-22T10:10:32.676Z,100109.09
2023-04-22T10:12:59.791Z,100109.81
2023-04-22T10:15:27.138Z,100115.69
2023-04-22T10:17:53.864Z,100108.81
2023-04-22T10:20:23.015Z,100107.78
2023-04-22T10:22:49.677Z,100110.44
2023-04-22T10:25:25.846Z,100106.38
2023-04-22T10:28:04.820Z,100103.81
2023-04-22T10:30:32.163Z,100104.22
2023-04-22T10:33:17.405Z,100103.69
2023-04-22T10:36:04.130Z,100095.78
2023-04-22T10:38:33.286Z,100094.88
2023-04-22T10:41:04.706Z,100093.34
2023-04-22T10:43:48.945Z,100086.94
2023-04-22T10:46:40.410Z,100093.03
2023-04-22T10:49:07.687Z,100085.41
2023-04-22T10:51:41.095Z,100087.38
2023-04-22T10:54:36.977Z,100076.22
2023-04-22T10:57:03.714Z,100083.56
2023-04-22T10:59:31.140Z,100077.94
2023-04-22T11:02:01.914Z,100075.63
2023-04-22T11:04:33.981Z,100079.88
2023-04-22T11:07:20.531Z,100083.41
2023-04-22T11:09:49.367Z,100079.91
2023-04-22T11:12:34.800Z,100076.94
2023-04-22T11:15:01.805Z,99789.13
2023-04-22T11:17:28.452Z,100080.03
2023-04-22T11:19:57.912Z,100072.88
2023-04-22T11:22:26.843Z,100076.84
2023-04-22T11:25:04.009Z,100077.34
2023-04-22T11:27:30.707Z,100071.16
2023-04-22T11:30:03.518Z,100073.22
2023-04-22T11:32:32.752Z,100069.50
2023-04-22T11:35:08.610Z,100071.84
2023-04-22T11:37:45.291Z,100077.44
2023-04-22T11:40:29.417Z,100074.44
2023-04-22T11:43:02.600Z,100083.84
2023-04-22T11:45:29.901Z,100070.53
2023-04-22T11:47:56.695Z,100081.56
2023-04-22T11:50:30.634Z,100075.03
2023-04-22T11:52:58.442Z,100078.34
2023-04-22T11:55:30.543Z,100074.06
2023-04-22T11:58:00.465Z,100073.81
2023-04-22T12:00:34.237Z,100072.09
2023-04-22T12:03:01.958Z,100065.94
2023-04-22T12:05:34.869Z,100073.22
2023-04-22T12:08:02.639Z,100064.06
2023-04-22T12:10:32.226Z,100063.38
2023-04-22T12:13:00.191Z,100062.75
2023-04-22T12:15:37.271Z,100053.22
2023-04-22T12:18:08.977Z,100057.47
2023-04-22T12:20:40.019Z,100061.63
2023-04-22T12:23:11.781Z,100051.75
2023-04-22T12:25:41.140Z,100050.81
2023-04-22T12:28:07.781Z,100050.63
2023-04-22T12:30:39.347Z,100042.91
2023-04-22T12:33:11.622Z,100039.72
2023-04-22T12:35:38.205Z,100046.03
2023-04-22T12:38:07.318Z,100044.34
2023-04-22T12:40:38.980Z,100039.38
2023-04-22T12:43:08.587Z,100049.00
2023-04-22T12:45:35.695Z,100046.16
2023-04-22T12:48:02.443Z,100043.16
2023-04-22T12:50:29.127Z,100035.97
2023-04-22T12:52:55.819Z,100034.81
2023-04-22T12:55:22.706Z,100040.69
2023-04-22T12:57:49.753Z,100031.81
2023-04-22T13:00:16.978Z,100036.44
2023-04-22T13:02:44.336Z,100033.78
2023-04-22T13:05:12.271Z,100030.06
2023-04-22T13:07:46.757Z,100028.31
2023-04-22T13:10:16.496Z,100025.63
2023-04-22T13:12:43.679Z,100020.47
2023-04-22T13:15:10.939Z,100016.75
2023-04-22T13:17:37.732Z,100018.00
2023-04-22T13:20:04.833Z,100018.53
2023-04-22T13:22:33.963Z,100011.25
2023-04-22T13:25:03.257Z,100016.72
2023-04-22T13:27:29.887Z,100016.94
2023-04-22T13:29:57.049Z,100015.38
2023-04-22T13:32:25.871Z,100007.13
2023-04-22T13:34:52.748Z,100009.75
2023-04-22T13:37:21.350Z,100011.56
2023-04-22T13:39:50.963Z,100009.81
2023-04-22T13:42:17.687Z,100012.56
2023-04-22T13:44:44.254Z,100009.22
2023-04-22T13:47:11.563Z,100004.78
2023-04-22T13:49:40.955Z,100006.06
2023-04-22T13:52:07.963Z,100004.91
2023-04-22T13:54:35.956Z,99994.06
2023-04-22T13:57:03.808Z,99996.59
2023-04-22T13:59:35.148Z,100000.28
2023-04-22T14:02:01.722Z,99995.41
2023-04-22T14:04:28.421Z,99996.06
2023-04-22T14:07:00.043Z,99996.63
2023-04-22T14:09:29.653Z,99987.38
2023-04-22T14:11:56.843Z,99997.06
2023-04-22T14:14:23.405Z,99996.53
2023-04-22T14:16:50.217Z,99985.84
2023-04-22T14:19:17.074Z,99988.66
2023-04-22T14:21:46.259Z,99986.72
2023-04-22T14:24:12.913Z,99990.38
2023-04-22T14:26:42.573Z,99989.81
2023-04-22T14:29:09.339Z,99990.84
2023-04-22T14:31:35.949Z,99992.44
2023-04-22T14:34:02.589Z,99987.25
2023-04-22T14:36:32.071Z,99996.78
2023-04-22T14:39:00.899Z,99982.78
2023-04-22T14:41:27.578Z,99978.03
2023-04-22T14:43:56.740Z,99981.38
2023-04-22T14:46:23.658Z,99983.41
2023-04-22T14:48:50.375Z,99985.72
2023-04-22T14:51:19.163Z,99983.38
2023-04-22T14:53:48.202Z,99987.56
2023-04-22T14:56:14.746Z,99976.41
2023-04-22T14:58:43.835Z,99984.19
2023-04-22T15:01:10.815Z,99984.66
2023-04-22T15:03:37.598Z,99980.44
2023-04-22T15:06:04.516Z,99985.75
2023-04-22T15:08:36.465Z,99985.25
2023-04-22T15:11:03.188Z,99973.34
2023-04-22T15:13:29.761Z,99985.56
2023-04-22T15:15:59.195Z,99984.97
2023-04-22T15:18:28.639Z,99984.94
2023-04-22T15:20:55.332Z,99990.63
2023-04-22T15:23:22.084Z,99978.19
2023-04-22T15:25:48.641Z,99982.50
2023-04-22T15:28:15.363Z,99988.41
2023-04-22T15:30:44.402Z,99990.44
2023-04-22T15:33:13.457Z,99982.41
2023-04-22T15:35:41.398Z,99984.34
2023-04-22T15:38:08.353Z,99988.59
2023-04-22T15:40:34.954Z,99989.91
2023-04-22T15:43:01.898Z,99985.78
2023-04-22T15:45:33.013Z,99987.88
2023-04-22T15:47:59.668Z,99985.25
2023-04-22T15:50:26.446Z,99985.91
2023-04-22T15:52:54.522Z,99982.22
2023-04-22T15:55:23.516Z,99988.75
2023-04-22T15:57:52.451Z,99984.44
2023-04-22T16:00:21.419Z,99986.84
2023-04-22T16:02:55.324Z,99982.09
2023-04-22T16:05:26.726Z,99983.75
2023-04-22T16:07:53.655Z,99978.63
2023-04-22T16:10:20.465Z,99979.19
2023-04-22T16:12:51.929Z,99977.75
2023-04-22T16:15:23.579Z,99974.34
2023-04-22T16:17:50.255Z,99973.09
2023-04-22T16:20:19.724Z,99978.59
2023-04-22T16:22:46.790Z,99971.81
2023-04-22T16:25:13.487Z,99976.34
2023-04-22T16:27:40.168Z,99973.16
2023-04-22T16:30:07.124Z,99966.94
2023-04-22T16:32:36.282Z,99962.03
2023-04-22T16:35:02.908Z,99962.88
2023-04-22T16:37:29.575Z,99965.53
2023-04-22T16:39:56.341Z,99967.59
2023-04-22T16:42:22.956Z,99966.28
2023-04-22T16:44:51.760Z,99961.38
2023-04-22T16:47:18.682Z,99964.63
2023-04-22T16:49:45.416Z,99966.34
2023-04-22T16:52:12.260Z,99958.25
2023-04-22T16:54:40.807Z,99958.38
2023-04-22T16:57:08.296Z,99957.59
2023-04-22T16:59:35.135Z,99959.63
2023-04-22T17:02:01.942Z,99959.13
2023-04-22T17:04:30.949Z,99958.53
2023-04-22T17:06:57.619Z,99961.59
2023-04-22T17:09:24.459Z,99971.44
2023-04-22T17:11:51.039Z,99967.03
2023-04-22T17:14:20.183Z,99971.38
2023-04-22T17:16:46.791Z,99964.94
2023-04-22T17:19:15.760Z,99970.66
2023-04-22T17:21:44.826Z,99971.81
2023-04-22T17:24:11.536Z,99971.31
2023-04-22T17:26:42.917Z,99970.69
2023-04-22T17:29:09.591Z,99961.47
2023-04-22T17:31:39.337Z,99969.66
2023-04-22T17:34:08.933Z,99966.16
2023-04-22T17:36:35.644Z,99969.88
2023-04-22T17:39:04.734Z,99969.16
2023-04-22T17:41:31.321Z,99976.34
2023-04-22T17:43:59.188Z,99976.56
2023-04-22T17:46:28.456Z,99975.06
2023-04-22T17:48:57.129Z,99978.81
2023-04-22T17:51:23.846Z,99974.50
2023-04-22T17:53:53.200Z,99983.53
2023-04-22T17:56:22.279Z,99978.34
2023-04-22T17:58:48.936Z,99989.06
2023-04-22T18:01:18.054Z,99989.28
2023-04-22T18:03:44.846Z,99993.88
2023-04-22T18:06:11.776Z,100004.47
2023-04-22T18:08:42.837Z,99999.28
2023-04-22T18:11:09.426Z,100003.75
2023-04-22T18:13:39.062Z,100009.06
2023-04-22T18:16:05.876Z,100004.78
2023-04-22T18:18:32.543Z,100012.78
2023-04-22T18:21:01.600Z,100020.69
2023-04-22T18:23:28.668Z,100022.50
2023-04-22T18:25:55.882Z,100017.31
2023-04-22T18:28:24.905Z,100027.84
2023-04-22T18:41:25.467Z,100032.44
2023-04-22T18:43:54.431Z,100030.72
2023-04-22T18:46:21.110Z,100035.13
2023-04-22T18:48:47.682Z,100038.69
2023-04-22T18:51:14.307Z,100036.97
2023-04-22T18:53:43.430Z,100043.13
2023-04-22T18:56:12.536Z,100038.78
2023-04-22T18:58:39.506Z,100036.16
2023-04-22T19:01:06.558Z,100040.59
2023-04-22T19:03:36.518Z,100045.88
2023-04-22T19:06:03.361Z,100042.41
2023-04-22T19:08:29.925Z,100038.91
2023-04-22T19:10:56.514Z,100044.13
2023-04-22T19:15:57.713Z,100039.78
2023-04-22T19:18:24.787Z,100045.03
2023-04-22T19:20:51.529Z,100048.53
2023-04-22T19:23:18.240Z,100045.94
2023-04-22T19:25:44.902Z,100045.94
2023-04-22T19:28:11.883Z,100045.94
2023-04-22T19:30:44.297Z,100052.06
2023-04-22T19:33:11.541Z,100051.19
2023-04-22T19:35:38.196Z,100035.47
2023-04-22T19:38:05.341Z,100042.47
2023-04-22T19:40:31.912Z,100043.38
2023-04-22T19:42:59.550Z,100035.50
2023-04-22T19:45:26.809Z,100039.00
2023-04-22T19:47:53.920Z,100042.50
2023-04-22T19:50:23.173Z,100040.75
2023-04-22T19:52:50.492Z,100045.13
2023-04-22T19:55:22.432Z,100042.50
2023-04-22T19:57:49.105Z,100038.94
2023-04-22T20:00:16.205Z,100039.81
2023-04-22T20:02:43.201Z,100046.78
2023-04-22T20:05:10.497Z,100045.91
2023-04-22T20:07:38.209Z,100054.63
2023-04-22T20:10:05.750Z,100052.88
2023-04-22T20:12:32.624Z,100052.03
2023-04-22T20:15:00.107Z,100050.28
2023-04-22T20:17:27.273Z,100049.41
2023-04-22T20:19:54.522Z,100050.28
2023-04-22T20:22:24.848Z,100044.19
2023-04-22T20:25:04.116Z,100049.44
2023-04-22T20:27:39.704Z,100048.50
2023-04-22T20:30:07.350Z,100051.94
2023-04-22T20:32:34.147Z,100046.69
2023-04-22T20:35:00.955Z,100037.06
2023-04-22T20:37:28.623Z,100045.72
2023-04-22T20:39:55.647Z,100049.09
2023-04-22T20:42:23.033Z,100041.16
2023-04-22T20:44:52.288Z,100049.81
2023-04-22T20:47:19.501Z,100044.56
2023-04-22T20:49:48.526Z,100036.66
2023-04-22T20:52:15.263Z,100045.44
2023-04-22T20:54:51.226Z,100038.50
2023-04-22T20:57:18.826Z,100042.81
2023-04-22T20:59:45.473Z,100038.50
2023-04-22T21:02:12.833Z,100044.66
2023-04-22T21:04:40.202Z,100046.41
2023-04-22T21:07:07.870Z,100047.25
2023-04-22T21:09:37.314Z,100045.50
2023-04-22T21:12:06.727Z,100045.56
2023-04-22T21:14:33.469Z,100044.69
2023-04-22T21:17:03.583Z,100049.94
2023-04-22T21:19:35.763Z,100042.91
2023-04-22T21:22:06.394Z,100043.78
2023-04-22T21:24:33.707Z,100054.28
2023-04-22T21:27:01.375Z,100044.66
2023-04-22T21:29:28.881Z,100044.66
2023-04-22T21:32:08.016Z,100048.16
2023-04-22T21:34:38.258Z,100042.97
2023-04-22T21:37:05.191Z,100044.72
2023-04-22T21:39:31.876Z,100056.06
2023-04-22T21:42:02.552Z,100051.69
2023-04-22T21:44:29.656Z,100050.81
2023-04-22T21:46:58.288Z,100048.16
2023-04-22T21:49:25.268Z,100062.97
2023-04-22T21:51:54.045Z,100054.22
2023-04-22T21:54:23.037Z,100060.19
2023-04-22T21:56:50.870Z,100057.50
2023-04-22T21:59:17.507Z,100061.75
2023-04-22T22:01:44.238Z,100055.56
2023-04-22T22:04:14.797Z,100057.16
2023-04-22T22:06:47.651Z,100063.16
2023-04-22T22:09:19.235Z,100066.56
2023-04-22T22:11:50.549Z,100067.31
2023-04-22T22:14:17.237Z,100070.66
2023-04-22T22:16:44.242Z,100074.78
2023-04-22T22:19:14.536Z,100077.97
2023-04-22T22:21:41.612Z,100082.19
2023-04-22T22:24:10.613Z,100074.38
2023-04-22T22:26:37.512Z,100082.94
2023-04-22T22:29:06.791Z,100077.63
2023-04-22T22:31:35.812Z,100073.13
2023-04-22T22:34:03.334Z,100078.13
2023-04-22T22:36:29.957Z,100070.31
2023-04-22T22:38:56.656Z,100076.38
2023-04-22T22:41:25.970Z,100082.38
2023-04-22T22:43:52.708Z,100076.03
2023-04-22T22:46:19.399Z,100081.25
2023-04-22T22:48:48.498Z,100082.06
2023-04-22T22:51:18.373Z,100077.63
2023-04-22T22:53:45.390Z,100082.66
2023-04-22T22:56:14.510Z,100074.69
2023-04-22T22:58:41.251Z,100081.56
2023-04-22T23:01:07.838Z,100078.06
2023-04-22T23:03:39.520Z,100083.19
2023-04-22T23:06:06.512Z,100079.72
2023-04-22T23:08:33.516Z,100089.22
2023-04-22T23:11:02.635Z,100084.88
2023-04-22T23:13:29.259Z,100089.13
2023-04-22T23:15:58.529Z,100078.75
2023-04-22T23:18:26.634Z,100079.66
2023-04-22T23:20:53.403Z,100083.06
2023-04-22T23:23:21.138Z,100084.63
2023-04-22T23:25:47.995Z,100093.19
2023-04-22T23:28:17.144Z,100088.72
2023-04-22T23:30:44.264Z,100092.13
2023-04-22T23:33:10.872Z,100091.25
2023-04-22T23:35:37.508Z,100098.16
2023-04-22T23:38:06.759Z,100090.41
2023-04-22T23:40:37.172Z,100089.59
2023-04-22T23:43:06.589Z,100095.63
2023-04-22T23:45:33.264Z,100085.97
2023-04-22T23:48:05.022Z,100092.03
2023-04-22T23:50:34.192Z,100083.34
2023-04-22T23:53:00.778Z,100096.25
2023-04-22T23:55:28.050Z,100084.13
2023-04-22T23:57:57.932Z,100094.41
